sensor_id;sensor_type;location;lat;lon;timestamp;P1;durP1;ratioP1;P2;durP2;ratioP2
62709;SDS011;48770;51.624;5.886;2023-04-23T00:02:08;1.75;;;1.50;;
62709;SDS011;48770;51.624;5.886;2023-04-23T00:04:37;1.65;;;1.50;;
62709;SDS011;48770;51.624;5.886;2023-04-23T00:07:04;1.85;;;1.48;;
62709;SDS011;48770;51.624;5.886;2023-04-23T00:09:30;1.98;;;1.45;;
62709;SDS011;48770;51.624;5.886;2023-04-23T00:11:58;2.10;;;1.67;;
62709;SDS011;48770;51.624;5.886;2023-04-23T00:14:25;1.77;;;1.65;;
62709;SDS011;48770;51.624;5.886;2023-04-23T00:16:51;1.90;;;1.65;;
62709;SDS011;48770;51.624;5.886;2023-04-23T00:19:16;1.90;;;1.70;;
62709;SDS011;48770;51.624;5.886;2023-04-23T00:21:42;2.35;;;1.98;;
62709;SDS011;48770;51.624;5.886;2023-04-23T00:24:07;1.95;;;1.77;;
62709;SDS011;48770;51.624;5.886;2023-04-23T00:26:32;1.98;;;1.55;;
62709;SDS011;48770;51.624;5.886;2023-04-23T00:28:57;1.63;;;1.52;;
62709;SDS011;48770;51.624;5.886;2023-04-23T00:31:23;2.05;;;1.85;;
62709;SDS011;48770;51.624;5.886;2023-04-23T00:33:50;2.05;;;1.85;;
62709;SDS011;48770;51.624;5.886;2023-04-23T00:36:16;2.17;;;1.98;;
62709;SDS011;48770;51.624;5.886;2023-04-23T00:38:41;2.30;;;2.10;;
62709;SDS011;48770;51.624;5.886;2023-04-23T00:41:07;1.70;;;1.60;;
62709;SDS011;48770;51.624;5.886;2023-04-23T00:43:33;2.20;;;1.90;;
62709;SDS011;48770;51.624;5.886;2023-04-23T00:45:58;1.85;;;1.60;;
62709;SDS011;48770;51.624;5.886;2023-04-23T00:48:24;2.30;;;2.10;;
62709;SDS011;48770;51.624;5.886;2023-04-23T00:50:56;2.33;;;2.03;;
62709;SDS011;48770;51.624;5.886;2023-04-23T00:53:29;1.98;;;1.77;;
62709;SDS011;48770;51.624;5.886;2023-04-23T00:55:54;2.35;;;2.03;;
62709;SDS011;48770;51.624;5.886;2023-04-23T00:58:20;1.60;;;1.50;;
62709;SDS011;48770;51.624;5.886;2023-04-23T01:00:46;1.83;;;1.65;;
62709;SDS011;48770;51.624;5.886;2023-04-23T01:03:13;1.95;;;1.77;;
62709;SDS011;48770;51.624;5.886;2023-04-23T01:05:40;2.53;;;2.10;;
62709;SDS011;48770;51.624;5.886;2023-04-23T01:08:07;1.90;;;1.70;;
62709;SDS011;48770;51.624;5.886;2023-04-23T01:10:34;1.90;;;1.80;;
62709;SDS011;48770;51.624;5.886;2023-04-23T01:12:59;2.20;;;2.00;;
62709;SDS011;48770;51.624;5.886;2023-04-23T01:15:25;1.92;;;1.80;;
62709;SDS011;48770;51.624;5.886;2023-04-23T01:17:50;2.20;;;2.00;;
62709;SDS011;48770;51.624;5.886;2023-04-23T01:20:17;2.30;;;2.05;;
62709;SDS011;48770;51.624;5.886;2023-04-23T01:22:42;2.17;;;1.95;;
62709;SDS011;48770;51.624;5.886;2023-04-23T01:25:08;2.00;;;1.80;;
62709;SDS011;48770;51.624;5.886;2023-04-23T01:27:34;2.10;;;1.90;;
62709;SDS011;48770;51.624;5.886;2023-04-23T01:30:00;2.40;;;2.20;;
62709;SDS011;48770;51.624;5.886;2023-04-23T01:32:28;2.38;;;2.08;;
62709;SDS011;48770;51.624;5.886;2023-04-23T01:34:54;2.20;;;2.00;;
62709;SDS011;48770;51.624;5.886;2023-04-23T01:37:20;2.13;;;1.80;;
62709;SDS011;48770;51.624;5.886;2023-04-23T01:39:47;1.92;;;1.70;;
62709;SDS011;48770;51.624;5.886;2023-04-23T01:42:12;1.88;;;1.77;;
62709;SDS011;48770;51.624;5.886;2023-04-23T01:44:38;2.45;;;1.95;;
62709;SDS011;48770;51.624;5.886;2023-04-23T01:47:03;2.00;;;1.80;;
62709;SDS011;48770;51.624;5.886;2023-04-23T01:49:29;1.50;;;1.38;;
62709;SDS011;48770;51.624;5.886;2023-04-23T01:51:54;2.00;;;1.80;;
62709;SDS011;48770;51.624;5.886;2023-04-23T01:54:20;2.00;;;1.80;;
62709;SDS011;48770;51.624;5.886;2023-04-23T01:56:45;2.25;;;1.98;;
62709;SDS011;48770;51.624;5.886;2023-04-23T01:59:10;1.77;;;1.67;;
62709;SDS011;48770;51.624;5.886;2023-04-23T02:01:43;2.10;;;1.80;;
62709;SDS011;48770;51.624;5.886;2023-04-23T02:04:11;2.50;;;2.00;;
62709;SDS011;48770;51.624;5.886;2023-04-23T02:06:37;2.00;;;1.80;;
62709;SDS011;48770;51.624;5.886;2023-04-23T02:09:03;2.47;;;2.05;;
62709;SDS011;48770;51.624;5.886;2023-04-23T02:11:28;1.80;;;1.70;;
62709;SDS011;48770;51.624;5.886;2023-04-23T02:13:54;2.28;;;2.08;;
62709;SDS011;48770;51.624;5.886;2023-04-23T02:16:19;2.03;;;1.88;;
62709;SDS011;48770;51.624;5.886;2023-04-23T02:18:45;2.10;;;1.90;;
62709;SDS011;48770;51.624;5.886;2023-04-23T02:21:10;1.77;;;1.67;;
62709;SDS011;48770;51.624;5.886;2023-04-23T02:23:37;2.00;;;1.73;;
62709;SDS011;48770;51.624;5.886;2023-04-23T02:26:02;1.30;;;1.20;;
62709;SDS011;48770;51.624;5.886;2023-04-23T02:28:28;2.28;;;1.83;;
62709;SDS011;48770;51.624;5.886;2023-04-23T02:30:53;1.90;;;1.80;;
62709;SDS011;48770;51.624;5.886;2023-04-23T02:33:18;1.67;;;1.58;;
62709;SDS011;48770;51.624;5.886;2023-04-23T02:35:44;1.60;;;1.50;;
62709;SDS011;48770;51.624;5.886;2023-04-23T02:38:10;2.17;;;1.98;;
62709;SDS011;48770;51.624;5.886;2023-04-23T02:40:35;2.15;;;1.70;;
62709;SDS011;48770;51.624;5.886;2023-04-23T02:43:00;1.75;;;1.65;;
62709;SDS011;48770;51.624;5.886;2023-04-23T02:45:26;1.77;;;1.58;;
62709;SDS011;48770;51.624;5.886;2023-04-23T02:47:51;1.80;;;1.52;;
62709;SDS011;48770;51.624;5.886;2023-04-23T02:50:17;1.75;;;1.65;;
62709;SDS011;48770;51.624;5.886;2023-04-23T02:52:42;1.98;;;1.77;;
62709;SDS011;48770;51.624;5.886;2023-04-23T02:55:08;1.70;;;1.60;;
62709;SDS011;48770;51.624;5.886;2023-04-23T02:57:33;1.55;;;1.40;;
62709;SDS011;48770;51.624;5.886;2023-04-23T02:59:59;1.63;;;1.40;;
62709;SDS011;48770;51.624;5.886;2023-04-23T03:02:24;1.88;;;1.63;;
62709;SDS011;48770;51.624;5.886;2023-04-23T03:04:50;1.70;;;1.60;;
62709;SDS011;48770;51.624;5.886;2023-04-23T03:07:15;1.40;;;1.30;;
62709;SDS011;48770;51.624;5.886;2023-04-23T03:09:41;2.03;;;1.83;;
62709;SDS011;48770;51.624;5.886;2023-04-23T03:12:07;1.90;;;1.70;;
62709;SDS011;48770;51.624;5.886;2023-04-23T03:14:32;1.50;;;1.40;;
62709;SDS011;48770;51.624;5.886;2023-04-23T03:16:58;1.50;;;1.40;;
62709;SDS011;48770;51.624;5.886;2023-04-23T03:19:23;1.73;;;1.60;;
62709;SDS011;48770;51.624;5.886;2023-04-23T03:21:48;1.90;;;1.70;;
62709;SDS011;48770;51.624;5.886;2023-04-23T03:24:14;1.77;;;1.60;;
62709;SDS011;48770;51.624;5.886;2023-04-23T03:26:40;1.58;;;1.48;;
62709;SDS011;48770;51.624;5.886;2023-04-23T03:29:05;1.67;;;1.58;;
62709;SDS011;48770;51.624;5.886;2023-04-23T03:31:31;1.65;;;1.55;;
62709;SDS011;48770;51.624;5.886;2023-04-23T03:33:57;1.70;;;1.60;;
62709;SDS011;48770;51.624;5.886;2023-04-23T03:36:22;1.65;;;1.48;;
62709;SDS011;48770;51.624;5.886;2023-04-23T03:38:47;1.60;;;1.40;;
62709;SDS011;48770;51.624;5.886;2023-04-23T03:41:13;1.52;;;1.42;;
62709;SDS011;48770;51.624;5.886;2023-04-23T03:43:38;1.50;;;1.40;;
62709;SDS011;48770;51.624;5.886;2023-04-23T03:46:04;1.73;;;1.63;;
62709;SDS011;48770;51.624;5.886;2023-04-23T03:48:29;1.52;;;1.42;;
62709;SDS011;48770;51.624;5.886;2023-04-23T03:50:56;1.65;;;1.55;;
62709;SDS011;48770;51.624;5.886;2023-04-23T03:53:21;1.60;;;1.50;;
62709;SDS011;48770;51.624;5.886;2023-04-23T03:55:47;1.52;;;1.42;;
62709;SDS011;48770;51.624;5.886;2023-04-23T03:58:12;1.20;;;1.10;;
62709;SDS011;48770;51.624;5.886;2023-04-23T04:00:37;1.20;;;1.10;;
62709;SDS011;48770;51.624;5.886;2023-04-23T04:03:03;1.50;;;1.40;;
62709;SDS011;48770;51.624;5.886;2023-04-23T04:05:28;1.48;;;1.38;;
62709;SDS011;48770;51.624;5.886;2023-04-23T04:07:53;1.63;;;1.52;;
62709;SDS011;48770;51.624;5.886;2023-04-23T04:10:19;1.33;;;1.23;;
62709;SDS011;48770;51.624;5.886;2023-04-23T04:12:45;1.40;;;1.30;;
62709;SDS011;48770;51.624;5.886;2023-04-23T04:15:11;1.30;;;1.20;;
62709;SDS011;48770;51.624;5.886;2023-04-23T04:17:37;1.20;;;1.10;;
62709;SDS011;48770;51.624;5.886;2023-04-23T04:20:03;1.70;;;1.60;;
62709;SDS011;48770;51.624;5.886;2023-04-23T04:22:28;1.30;;;1.20;;
62709;SDS011;48770;51.624;5.886;2023-04-23T04:24:53;1.40;;;1.30;;
62709;SDS011;48770;51.624;5.886;2023-04-23T04:27:20;1.27;;;1.17;;
62709;SDS011;48770;51.624;5.886;2023-04-23T04:29:45;1.20;;;1.10;;
62709;SDS011;48770;51.624;5.886;2023-04-23T04:32:12;1.63;;;1.23;;
62709;SDS011;48770;51.624;5.886;2023-04-23T04:34:37;1.23;;;1.13;;
62709;SDS011;48770;51.624;5.886;2023-04-23T04:37:03;0.90;;;0.90;;
62709;SDS011;48770;51.624;5.886;2023-04-23T04:39:28;1.70;;;1.27;;
62709;SDS011;48770;51.624;5.886;2023-04-23T04:41:54;1.02;;;1.00;;
62709;SDS011;48770;51.624;5.886;2023-04-23T04:44:21;1.10;;;1.00;;
62709;SDS011;48770;51.624;5.886;2023-04-23T04:46:46;1.15;;;1.05;;
62709;SDS011;48770;51.624;5.886;2023-04-23T04:49:12;1.50;;;1.40;;
62709;SDS011;48770;51.624;5.886;2023-04-23T04:51:38;1.20;;;1.10;;
62709;SDS011;48770;51.624;5.886;2023-04-23T04:54:04;1.10;;;0.98;;
62709;SDS011;48770;51.624;5.886;2023-04-23T04:56:31;1.13;;;1.02;;
62709;SDS011;48770;51.624;5.886;2023-04-23T04:58:56;1.05;;;0.98;;
62709;SDS011;48770;51.624;5.886;2023-04-23T05:01:22;0.60;;;0.60;;
62709;SDS011;48770;51.624;5.886;2023-04-23T05:03:49;1.50;;;1.15;;
62709;SDS011;48770;51.624;5.886;2023-04-23T05:06:14;1.17;;;1.08;;
62709;SDS011;48770;51.624;5.886;2023-04-23T05:08:40;1.23;;;1.00;;
62709;SDS011;48770;51.624;5.886;2023-04-23T05:11:06;1.20;;;1.10;;
62709;SDS011;48770;51.624;5.886;2023-04-23T05:13:32;0.95;;;0.90;;
62709;SDS011;48770;51.624;5.886;2023-04-23T05:15:57;1.13;;;1.02;;
62709;SDS011;48770;51.624;5.886;2023-04-23T05:18:22;1.23;;;1.02;;
62709;SDS011;48770;51.624;5.886;2023-04-23T05:20:48;1.02;;;0.93;;
62709;SDS011;48770;51.624;5.886;2023-04-23T05:23:13;1.00;;;0.90;;
62709;SDS011;48770;51.624;5.886;2023-04-23T05:25:38;1.08;;;0.98;;
62709;SDS011;48770;51.624;5.886;2023-04-23T05:28:03;0.90;;;0.88;;
62709;SDS011;48770;51.624;5.886;2023-04-23T05:30:29;0.85;;;0.85;;
62709;SDS011;48770;51.624;5.886;2023-04-23T05:32:54;1.08;;;0.90;;
62709;SDS011;48770;51.624;5.886;2023-04-23T05:35:20;0.75;;;0.70;;
62709;SDS011;48770;51.624;5.886;2023-04-23T05:37:45;0.88;;;0.88;;
62709;SDS011;48770;51.624;5.886;2023-04-23T05:40:11;1.15;;;1.05;;
62709;SDS011;48770;51.624;5.886;2023-04-23T05:42:37;1.27;;;1.17;;
62709;SDS011;48770;51.624;5.886;2023-04-23T05:45:02;0.82;;;0.70;;
62709;SDS011;48770;51.624;5.886;2023-04-23T05:47:28;0.70;;;0.70;;
62709;SDS011;48770;51.624;5.886;2023-04-23T05:49:54;1.02;;;0.93;;
62709;SDS011;48770;51.624;5.886;2023-04-23T05:52:21;1.05;;;0.95;;
62709;SDS011;48770;51.624;5.886;2023-04-23T05:54:47;1.10;;;1.00;;
62709;SDS011;48770;51.624;5.886;2023-04-23T05:57:12;0.70;;;0.70;;
62709;SDS011;48770;51.624;5.886;2023-04-23T05:59:37;0.88;;;0.88;;
62709;SDS011;48770;51.624;5.886;2023-04-23T06:02:02;0.80;;;0.75;;
62709;SDS011;48770;51.624;5.886;2023-04-23T06:04:28;0.85;;;0.85;;
62709;SDS011;48770;51.624;5.886;2023-04-23T06:06:53;1.05;;;0.95;;
62709;SDS011;48770;51.624;5.886;2023-04-23T06:09:18;1.10;;;1.00;;
62709;SDS011;48770;51.624;5.886;2023-04-23T06:11:44;0.82;;;0.80;;
62709;SDS011;48770;51.624;5.886;2023-04-23T06:14:09;0.80;;;0.80;;
62709;SDS011;48770;51.624;5.886;2023-04-23T06:16:34;1.13;;;0.90;;
62709;SDS011;48770;51.624;5.886;2023-04-23T06:19:00;0.80;;;0.80;;
62709;SDS011;48770;51.624;5.886;2023-04-23T06:21:25;0.80;;;0.70;;
62709;SDS011;48770;51.624;5.886;2023-04-23T06:23:51;0.52;;;0.52;;
62709;SDS011;48770;51.624;5.886;2023-04-23T06:26:16;1.00;;;0.90;;
62709;SDS011;48770;51.624;5.886;2023-04-23T06:28:42;0.80;;;0.80;;
62709;SDS011;48770;51.624;5.886;2023-04-23T06:31:08;0.82;;;0.80;;
62709;SDS011;48770;51.624;5.886;2023-04-23T06:33:34;0.40;;;0.40;;
62709;SDS011;48770;51.624;5.886;2023-04-23T06:36:01;0.73;;;0.73;;
62709;SDS011;48770;51.624;5.886;2023-04-23T06:38:30;0.70;;;0.70;;
62709;SDS011;48770;51.624;5.886;2023-04-23T06:40:55;1.02;;;0.93;;
62709;SDS011;48770;51.624;5.886;2023-04-23T06:43:21;0.73;;;0.73;;
62709;SDS011;48770;51.624;5.886;2023-04-23T06:45:47;1.02;;;0.70;;
62709;SDS011;48770;51.624;5.886;2023-04-23T06:48:13;0.73;;;0.73;;
62709;SDS011;48770;51.624;5.886;2023-04-23T06:50:38;0.80;;;0.80;;
62709;SDS011;48770;51.624;5.886;2023-04-23T06:53:04;0.95;;;0.85;;
62709;SDS011;48770;51.624;5.886;2023-04-23T06:55:29;0.75;;;0.75;;
62709;SDS011;48770;51.624;5.886;2023-04-23T06:57:55;0.80;;;0.80;;
62709;SDS011;48770;51.624;5.886;2023-04-23T07:00:21;0.65;;;0.65;;
62709;SDS011;48770;51.624;5.886;2023-04-23T07:02:47;1.08;;;0.75;;
62709;SDS011;48770;51.624;5.886;2023-04-23T07:05:12;0.85;;;0.80;;
62709;SDS011;48770;51.624;5.886;2023-04-23T07:07:38;0.70;;;0.63;;
62709;SDS011;48770;51.624;5.886;2023-04-23T07:10:05;1.00;;;0.90;;
62709;SDS011;48770;51.624;5.886;2023-04-23T07:12:31;1.00;;;0.82;;
62709;SDS011;48770;51.624;5.886;2023-04-23T07:14:56;1.00;;;0.90;;
62709;SDS011;48770;51.624;5.886;2023-04-23T07:17:22;0.88;;;0.80;;
62709;SDS011;48770;51.624;5.886;2023-04-23T07:19:47;0.63;;;0.50;;
62709;SDS011;48770;51.624;5.886;2023-04-23T07:22:13;0.73;;;0.60;;
62709;SDS011;48770;51.624;5.886;2023-04-23T07:24:38;0.63;;;0.63;;
62709;SDS011;48770;51.624;5.886;2023-04-23T07:27:03;0.75;;;0.60;;
62709;SDS011;48770;51.624;5.886;2023-04-23T07:29:29;1.05;;;0.90;;
62709;SDS011;48770;51.624;5.886;2023-04-23T07:31:55;0.70;;;0.70;;
62709;SDS011;48770;51.624;5.886;2023-04-23T07:34:20;0.70;;;0.70;;
62709;SDS011;48770;51.624;5.886;2023-04-23T07:36:45;0.88;;;0.70;;
62709;SDS011;48770;51.624;5.886;2023-04-23T07:39:11;0.70;;;0.65;;
62709;SDS011;48770;51.624;5.886;2023-04-23T07:41:36;0.65;;;0.65;;
62709;SDS011;48770;51.624;5.886;2023-04-23T07:44:02;0.77;;;0.70;;
62709;SDS011;48770;51.624;5.886;2023-04-23T07:46:28;1.13;;;0.68;;
62709;SDS011;48770;51.624;5.886;2023-04-23T07:48:53;0.85;;;0.75;;
62709;SDS011;48770;51.624;5.886;2023-04-23T07:51:19;0.98;;;0.68;;
62709;SDS011;48770;51.624;5.886;2023-04-23T07:53:46;1.08;;;0.80;;
62709;SDS011;48770;51.624;5.886;2023-04-23T07:56:14;0.70;;;0.70;;
62709;SDS011;48770;51.624;5.886;2023-04-23T07:58:40;0.60;;;0.60;;
62709;SDS011;48770;51.624;5.886;2023-04-23T08:01:05;0.80;;;0.77;;
62709;SDS011;48770;51.624;5.886;2023-04-23T08:03:30;0.73;;;0.60;;
62709;SDS011;48770;51.624;5.886;2023-04-23T08:05:56;0.77;;;0.60;;
62709;SDS011;48770;51.624;5.886;2023-04-23T08:08:21;0.80;;;0.70;;
62709;SDS011;48770;51.624;5.886;2023-04-23T08:10:47;0.65;;;0.63;;
62709;SDS011;48770;51.624;5.886;2023-04-23T08:13:12;0.73;;;0.65;;
62709;SDS011;48770;51.624;5.886;2023-04-23T08:15:37;2.25;;;0.47;;
62709;SDS011;48770;51.624;5.886;2023-04-23T08:18:03;4.80;;;1.80;;
62709;SDS011;48770;51.624;5.886;2023-04-23T08:20:29;2.67;;;1.98;;
62709;SDS011;48770;51.624;5.886;2023-04-23T08:22:56;4.25;;;2.50;;
62709;SDS011;48770;51.624;5.886;2023-04-23T08:25:21;7.25;;;2.50;;
62709;SDS011;48770;51.624;5.886;2023-04-23T08:27:46;7.50;;;2.60;;
62709;SDS011;48770;51.624;5.886;2023-04-23T08:30:12;5.65;;;2.55;;
62709;SDS011;48770;51.624;5.886;2023-04-23T08:32:38;6.88;;;2.53;;
62709;SDS011;48770;51.624;5.886;2023-04-23T08:35:04;7.80;;;2.60;;
62709;SDS011;48770;51.624;5.886;2023-04-23T08:37:30;3.38;;;2.25;;
62709;SDS011;48770;51.624;5.886;2023-04-23T08:39:55;4.53;;;1.92;;
62709;SDS011;48770;51.624;5.886;2023-04-23T08:42:22;6.63;;;2.50;;
62709;SDS011;48770;51.624;5.886;2023-04-23T08:45:09;5.47;;;2.10;;
62709;SDS011;48770;51.624;5.886;2023-04-23T08:47:37;7.22;;;1.70;;
62709;SDS011;48770;51.624;5.886;2023-04-23T08:50:06;8.52;;;2.30;;
62709;SDS011;48770;51.624;5.886;2023-04-23T08:52:33;6.25;;;1.75;;
62709;SDS011;48770;51.624;5.886;2023-04-23T08:55:05;8.48;;;2.40;;
62709;SDS011;48770;51.624;5.886;2023-04-23T08:57:39;8.05;;;2.20;;
62709;SDS011;48770;51.624;5.886;2023-04-23T09:00:05;8.05;;;2.15;;
62709;SDS011;48770;51.624;5.886;2023-04-23T09:02:36;7.28;;;2.03;;
62709;SDS011;48770;51.624;5.886;2023-04-23T09:05:03;7.75;;;2.25;;
62709;SDS011;48770;51.624;5.886;2023-04-23T09:07:29;5.55;;;1.70;;
62709;SDS011;48770;51.624;5.886;2023-04-23T09:09:54;7.72;;;1.98;;
62709;SDS011;48770;51.624;5.886;2023-04-23T09:12:20;7.10;;;1.90;;
62709;SDS011;48770;51.624;5.886;2023-04-23T09:14:46;6.80;;;1.85;;
62709;SDS011;48770;51.624;5.886;2023-04-23T09:17:11;10.15;;;2.38;;
62709;SDS011;48770;51.624;5.886;2023-04-23T09:19:36;5.20;;;1.77;;
62709;SDS011;48770;51.624;5.886;2023-04-23T09:22:03;9.48;;;2.22;;
62709;SDS011;48770;51.624;5.886;2023-04-23T09:24:28;6.13;;;1.90;;
62709;SDS011;48770;51.624;5.886;2023-04-23T09:26:54;6.43;;;1.98;;
62709;SDS011;48770;51.624;5.886;2023-04-23T09:29:22;5.78;;;1.90;;
62709;SDS011;48770;51.624;5.886;2023-04-23T09:31:54;6.75;;;1.60;;
62709;SDS011;48770;51.624;5.886;2023-04-23T09:34:21;7.75;;;1.80;;
62709;SDS011;48770;51.624;5.886;2023-04-23T09:36:49;4.20;;;1.50;;
62709;SDS011;48770;51.624;5.886;2023-04-23T09:39:20;6.47;;;1.50;;
62709;SDS011;48770;51.624;5.886;2023-04-23T09:41:47;9.60;;;2.25;;
62709;SDS011;48770;51.624;5.886;2023-04-23T09:44:18;6.78;;;1.52;;
62709;SDS011;48770;51.624;5.886;2023-04-23T09:46:48;4.97;;;2.03;;
62709;SDS011;48770;51.624;5.886;2023-04-23T09:49:14;6.25;;;1.60;;
62709;SDS011;48770;51.624;5.886;2023-04-23T09:51:41;5.10;;;1.33;;
62709;SDS011;48770;51.624;5.886;2023-04-23T09:54:11;7.10;;;1.40;;
62709;SDS011;48770;51.624;5.886;2023-04-23T09:56:42;4.93;;;1.63;;
62709;SDS011;48770;51.624;5.886;2023-04-23T10:02:04;6.22;;;1.42;;
62709;SDS011;48770;51.624;5.886;2023-04-23T10:04:31;3.67;;;1.35;;
62709;SDS011;48770;51.624;5.886;2023-04-23T10:07:01;8.23;;;1.90;;
62709;SDS011;48770;51.624;5.886;2023-04-23T10:09:29;6.07;;;1.50;;
62709;SDS011;48770;51.624;5.886;2023-04-23T10:11:55;5.00;;;1.30;;
62709;SDS011;48770;51.624;5.886;2023-04-23T10:14:23;2.85;;;1.17;;
62709;SDS011;48770;51.624;5.886;2023-04-23T10:16:50;8.25;;;1.65;;
62709;SDS011;48770;51.624;5.886;2023-04-23T10:19:20;5.82;;;1.83;;
62709;SDS011;48770;51.624;5.886;2023-04-23T10:21:56;7.22;;;1.67;;
62709;SDS011;48770;51.624;5.886;2023-04-23T10:24:24;11.43;;;1.90;;
62709;SDS011;48770;51.624;5.886;2023-04-23T10:27:01;5.95;;;1.40;;
62709;SDS011;48770;51.624;5.886;2023-04-23T10:29:31;7.50;;;1.50;;
62709;SDS011;48770;51.624;5.886;2023-04-23T10:31:58;2.88;;;1.33;;
62709;SDS011;48770;51.624;5.886;2023-04-23T10:34:26;5.28;;;1.17;;
62709;SDS011;48770;51.624;5.886;2023-04-23T10:36:53;8.80;;;1.90;;
62709;SDS011;48770;51.624;5.886;2023-04-23T10:39:20;4.85;;;1.50;;
62709;SDS011;48770;51.624;5.886;2023-04-23T10:41:46;4.57;;;1.00;;
62709;SDS011;48770;51.624;5.886;2023-04-23T10:44:13;5.90;;;1.27;;
62709;SDS011;48770;51.624;5.886;2023-04-23T10:46:46;6.78;;;0.95;;
62709;SDS011;48770;51.624;5.886;2023-04-23T10:49:16;2.45;;;1.08;;
62709;SDS011;48770;51.624;5.886;2023-04-23T10:51:41;3.60;;;0.90;;
62709;SDS011;48770;51.624;5.886;2023-04-23T10:54:12;3.50;;;1.10;;
62709;SDS011;48770;51.624;5.886;2023-04-23T10:56:39;6.78;;;1.10;;
62709;SDS011;48770;51.624;5.886;2023-04-23T10:59:18;4.95;;;1.10;;
62709;SDS011;48770;51.624;5.886;2023-04-23T11:01:54;4.45;;;1.23;;
62709;SDS011;48770;51.624;5.886;2023-04-23T11:04:23;3.70;;;1.23;;
62709;SDS011;48770;51.624;5.886;2023-04-23T11:07:11;3.38;;;1.10;;
62709;SDS011;48770;51.624;5.886;2023-04-23T11:12:05;4.88;;;1.20;;
62709;SDS011;48770;51.624;5.886;2023-04-23T11:14:36;5.10;;;1.30;;
62709;SDS011;48770;51.624;5.886;2023-04-23T11:17:06;4.60;;;1.05;;
62709;SDS011;48770;51.624;5.886;2023-04-23T11:19:35;3.88;;;1.00;;
62709;SDS011;48770;51.624;5.886;2023-04-23T11:22:05;6.63;;;1.17;;
62709;SDS011;48770;51.624;5.886;2023-04-23T11:24:37;3.30;;;1.08;;
62709;SDS011;48770;51.624;5.886;2023-04-23T11:27:06;3.72;;;0.95;;
62709;SDS011;48770;51.624;5.886;2023-04-23T11:29:34;3.85;;;1.08;;
62709;SDS011;48770;51.624;5.886;2023-04-23T11:32:02;3.25;;;1.50;;
62709;SDS011;48770;51.624;5.886;2023-04-23T11:34:29;4.13;;;1.17;;
62709;SDS011;48770;51.624;5.886;2023-04-23T11:36:55;3.60;;;1.08;;
62709;SDS011;48770;51.624;5.886;2023-04-23T11:39:23;3.33;;;0.98;;
62709;SDS011;48770;51.624;5.886;2023-04-23T11:41:49;5.35;;;1.25;;
62709;SDS011;48770;51.624;5.886;2023-04-23T11:44:16;3.65;;;1.00;;
62709;SDS011;48770;51.624;5.886;2023-04-23T11:46:42;5.35;;;1.15;;
62709;SDS011;48770;51.624;5.886;2023-04-23T11:49:10;3.00;;;0.82;;
62709;SDS011;48770;51.624;5.886;2023-04-23T11:51:40;7.03;;;1.00;;
62709;SDS011;48770;51.624;5.886;2023-04-23T11:54:07;6.07;;;1.75;;
62709;SDS011;48770;51.624;5.886;2023-04-23T11:56:33;2.95;;;0.82;;
62709;SDS011;48770;51.624;5.886;2023-04-23T11:59:02;4.47;;;0.95;;
62709;SDS011;48770;51.624;5.886;2023-04-23T12:01:41;5.05;;;0.85;;
62709;SDS011;48770;51.624;5.886;2023-04-23T12:04:08;2.65;;;0.68;;
62709;SDS011;48770;51.624;5.886;2023-04-23T12:06:35;1.80;;;0.80;;
62709;SDS011;48770;51.624;5.886;2023-04-23T12:09:00;2.63;;;0.80;;
62709;SDS011;48770;51.624;5.886;2023-04-23T12:11:25;4.13;;;1.05;;
62709;SDS011;48770;51.624;5.886;2023-04-23T12:13:51;3.85;;;1.05;;
62709;SDS011;48770;51.624;5.886;2023-04-23T12:16:18;3.05;;;1.05;;
62709;SDS011;48770;51.624;5.886;2023-04-23T12:18:58;1.95;;;0.90;;
62709;SDS011;48770;51.624;5.886;2023-04-23T12:21:25;2.80;;;1.30;;
62709;SDS011;48770;51.624;5.886;2023-04-23T12:23:52;3.92;;;1.10;;
62709;SDS011;48770;51.624;5.886;2023-04-23T12:26:18;3.58;;;0.90;;
62709;SDS011;48770;51.624;5.886;2023-04-23T12:28:54;2.85;;;1.08;;
62709;SDS011;48770;51.624;5.886;2023-04-23T12:31:26;3.17;;;0.98;;
62709;SDS011;48770;51.624;5.886;2023-04-23T12:34:12;4.05;;;0.95;;
62709;SDS011;48770;51.624;5.886;2023-04-23T12:36:42;3.55;;;0.70;;
62709;SDS011;48770;51.624;5.886;2023-04-23T12:39:22;3.55;;;0.75;;
62709;SDS011;48770;51.624;5.886;2023-04-23T12:41:52;3.17;;;0.93;;
62709;SDS011;48770;51.624;5.886;2023-04-23T12:44:20;1.98;;;0.82;;
62709;SDS011;48770;51.624;5.886;2023-04-23T12:46:53;4.05;;;0.80;;
62709;SDS011;48770;51.624;5.886;2023-04-23T12:49:29;5.80;;;1.08;;
62709;SDS011;48770;51.624;5.886;2023-04-23T12:51:55;2.03;;;0.85;;
62709;SDS011;48770;51.624;5.886;2023-04-23T12:54:24;3.67;;;0.60;;
62709;SDS011;48770;51.624;5.886;2023-04-23T12:56:50;1.38;;;0.70;;
62709;SDS011;48770;51.624;5.886;2023-04-23T12:59:16;2.75;;;0.80;;
62709;SDS011;48770;51.624;5.886;2023-04-23T13:01:41;3.13;;;0.75;;
62709;SDS011;48770;51.624;5.886;2023-04-23T13:04:07;1.38;;;0.70;;
62709;SDS011;48770;51.624;5.886;2023-04-23T13:06:32;3.22;;;0.68;;
62709;SDS011;48770;51.624;5.886;2023-04-23T13:08:58;3.17;;;0.75;;
62709;SDS011;48770;51.624;5.886;2023-04-23T13:11:26;2.30;;;0.90;;
62709;SDS011;48770;51.624;5.886;2023-04-23T13:13:51;2.05;;;0.70;;
62709;SDS011;48770;51.624;5.886;2023-04-23T13:16:17;4.60;;;0.98;;
62709;SDS011;48770;51.624;5.886;2023-04-23T13:18:42;3.88;;;0.70;;
62709;SDS011;48770;51.624;5.886;2023-04-23T13:21:08;2.38;;;0.60;;
62709;SDS011;48770;51.624;5.886;2023-04-23T13:23:34;2.85;;;0.95;;
62709;SDS011;48770;51.624;5.886;2023-04-23T13:25:59;3.20;;;0.70;;
62709;SDS011;48770;51.624;5.886;2023-04-23T13:28:27;2.70;;;0.73;;
62709;SDS011;48770;51.624;5.886;2023-04-23T13:30:52;2.55;;;0.50;;
62709;SDS011;48770;51.624;5.886;2023-04-23T13:33:17;3.20;;;0.65;;
62709;SDS011;48770;51.624;5.886;2023-04-23T13:35:43;1.73;;;0.60;;
62709;SDS011;48770;51.624;5.886;2023-04-23T13:38:08;2.08;;;0.52;;
62709;SDS011;48770;51.624;5.886;2023-04-23T13:40:34;2.53;;;0.65;;
62709;SDS011;48770;51.624;5.886;2023-04-23T13:43:00;5.43;;;0.90;;
62709;SDS011;48770;51.624;5.886;2023-04-23T13:45:25;3.60;;;0.68;;
62709;SDS011;48770;51.624;5.886;2023-04-23T13:47:50;2.75;;;0.60;;
62709;SDS011;48770;51.624;5.886;2023-04-23T13:50:16;3.92;;;1.05;;
62709;SDS011;48770;51.624;5.886;2023-04-23T13:52:41;3.53;;;0.80;;
62709;SDS011;48770;51.624;5.886;2023-04-23T13:55:07;2.53;;;0.60;;
62709;SDS011;48770;51.624;5.886;2023-04-23T13:57:33;1.35;;;0.50;;
62709;SDS011;48770;51.624;5.886;2023-04-23T13:59:59;2.42;;;0.60;;
62709;SDS011;48770;51.624;5.886;2023-04-23T14:02:24;4.32;;;0.85;;
62709;SDS011;48770;51.624;5.886;2023-04-23T14:04:50;2.45;;;0.80;;
62709;SDS011;48770;51.624;5.886;2023-04-23T14:07:15;1.38;;;0.30;;
62709;SDS011;48770;51.624;5.886;2023-04-23T14:09:41;2.38;;;0.50;;
62709;SDS011;48770;51.624;5.886;2023-04-23T14:12:06;3.15;;;0.63;;
62709;SDS011;48770;51.624;5.886;2023-04-23T14:14:33;1.98;;;0.55;;
62709;SDS011;48770;51.624;5.886;2023-04-23T14:16:59;1.58;;;0.50;;
62709;SDS011;48770;51.624;5.886;2023-04-23T14:19:27;3.45;;;0.60;;
62709;SDS011;48770;51.624;5.886;2023-04-23T14:21:54;2.63;;;0.73;;
62709;SDS011;48770;51.624;5.886;2023-04-23T14:24:26;5.53;;;0.60;;
62709;SDS011;48770;51.624;5.886;2023-04-23T14:26:52;4.75;;;1.02;;
62709;SDS011;48770;51.624;5.886;2023-04-23T14:29:34;3.20;;;0.32;;
62709;SDS011;48770;51.624;5.886;2023-04-23T14:32:04;2.28;;;0.60;;
62709;SDS011;48770;51.624;5.886;2023-04-23T14:34:30;3.28;;;0.63;;
62709;SDS011;48770;51.624;5.886;2023-04-23T14:36:56;2.80;;;0.68;;
62709;SDS011;48770;51.624;5.886;2023-04-23T14:39:21;2.08;;;0.75;;
62709;SDS011;48770;51.624;5.886;2023-04-23T14:41:49;3.35;;;1.08;;
62709;SDS011;48770;51.624;5.886;2023-04-23T14:44:15;1.63;;;0.68;;
62709;SDS011;48770;51.624;5.886;2023-04-23T14:46:40;4.32;;;0.60;;
62709;SDS011;48770;51.624;5.886;2023-04-23T14:49:06;2.00;;;0.70;;
62709;SDS011;48770;51.624;5.886;2023-04-23T14:51:31;2.60;;;0.70;;